sensor_id;sensor_type;location;lat;lon;timestamp;P1;durP1;ratioP1;P2;durP2;ratioP2
13171;SDS011;6651;53.200;10.432;2022-12-10T00:01:23;21.10;;;13.23;;
13171;SDS011;6651;53.200;10.432;2022-12-10T00:03:49;21.10;;;13.45;;
13171;SDS011;6651;53.200;10.432;2022-12-10T00:06:17;22.38;;;14.60;;
13171;SDS011;6651;53.200;10.432;2022-12-10T00:08:43;21.35;;;14.25;;
13171;SDS011;6651;53.200;10.432;2022-12-10T00:11:10;22.75;;;13.95;;
13171;SDS011;6651;53.200;10.432;2022-12-10T00:13:36;19.65;;;13.60;;
13171;SDS011;6651;53.200;10.432;2022-12-10T00:16:03;20.75;;;13.52;;
13171;SDS011;6651;53.200;10.432;2022-12-10T00:18:30;23.02;;;13.55;;
13171;SDS011;6651;53.200;10.432;2022-12-10T00:20:56;19.17;;;12.15;;
13171;SDS011;6651;53.200;10.432;2022-12-10T00:23:22;21.67;;;12.68;;
13171;SDS011;6651;53.200;10.432;2022-12-10T00:25:49;17.98;;;12.38;;
13171;SDS011;6651;53.200;10.432;2022-12-10T00:28:15;20.80;;;13.90;;
13171;SDS011;6651;53.200;10.432;2022-12-10T00:30:41;21.27;;;13.68;;
13171;SDS011;6651;53.200;10.432;2022-12-10T00:33:07;21.60;;;14.57;;
13171;SDS011;6651;53.200;10.432;2022-12-10T00:35:36;20.52;;;13.20;;
13171;SDS011;6651;53.200;10.432;2022-12-10T00:38:02;16.67;;;11.63;;
13171;SDS011;6651;53.200;10.432;2022-12-10T00:40:29;17.50;;;11.35;;
13171;SDS011;6651;53.200;10.432;2022-12-10T00:42:55;20.27;;;12.80;;
13171;SDS011;6651;53.200;10.432;2022-12-10T00:45:21;17.73;;;12.52;;
13171;SDS011;6651;53.200;10.432;2022-12-10T00:47:47;17.13;;;11.50;;
13171;SDS011;6651;53.200;10.432;2022-12-10T00:50:13;16.63;;;11.02;;
13171;SDS011;6651;53.200;10.432;2022-12-10T00:52:39;16.15;;;11.25;;
13171;SDS011;6651;53.200;10.432;2022-12-10T00:55:05;18.08;;;12.27;;
13171;SDS011;6651;53.200;10.432;2022-12-10T00:57:31;16.48;;;11.52;;
13171;SDS011;6651;53.200;10.432;2022-12-10T00:59:57;17.52;;;12.10;;
13171;SDS011;6651;53.200;10.432;2022-12-10T01:02:23;18.45;;;12.48;;
13171;SDS011;6651;53.200;10.432;2022-12-10T01:04:52;17.42;;;12.25;;
13171;SDS011;6651;53.200;10.432;2022-12-10T01:07:18;16.80;;;12.18;;
13171;SDS011;6651;53.200;10.432;2022-12-10T01:09:44;18.50;;;12.18;;
13171;SDS011;6651;53.200;10.432;2022-12-10T01:12:10;18.58;;;12.60;;
13171;SDS011;6651;53.200;10.432;2022-12-10T01:14:36;19.77;;;13.48;;
13171;SDS011;6651;53.200;10.432;2022-12-10T01:17:03;18.92;;;12.70;;
13171;SDS011;6651;53.200;10.432;2022-12-10T01:19:30;19.23;;;13.32;;
13171;SDS011;6651;53.200;10.432;2022-12-10T01:21:56;20.88;;;14.57;;
13171;SDS011;6651;53.200;10.432;2022-12-10T01:24:23;22.30;;;15.55;;
13171;SDS011;6651;53.200;10.432;2022-12-10T01:26:50;23.85;;;15.80;;
13171;SDS011;6651;53.200;10.432;2022-12-10T01:29:16;22.90;;;14.68;;
13171;SDS011;6651;53.200;10.432;2022-12-10T01:31:42;20.77;;;14.27;;
13171;SDS011;6651;53.200;10.432;2022-12-10T01:34:09;19.50;;;12.85;;
13171;SDS011;6651;53.200;10.432;2022-12-10T01:36:40;19.75;;;13.82;;
13171;SDS011;6651;53.200;10.432;2022-12-10T01:39:07;19.30;;;12.80;;
13171;SDS011;6651;53.200;10.432;2022-12-10T01:41:39;17.67;;;12.32;;
13171;SDS011;6651;53.200;10.432;2022-12-10T01:46:35;17.33;;;12.40;;
13171;SDS011;6651;53.200;10.432;2022-12-10T01:49:03;19.70;;;13.35;;
13171;SDS011;6651;53.200;10.432;2022-12-10T01:51:30;19.60;;;13.77;;
13171;SDS011;6651;53.200;10.432;2022-12-10T01:53:56;21.55;;;13.77;;
13171;SDS011;6651;53.200;10.432;2022-12-10T01:56:23;22.10;;;14.55;;
13171;SDS011;6651;53.200;10.432;2022-12-10T01:58:50;20.90;;;14.48;;
13171;SDS011;6651;53.200;10.432;2022-12-10T02:14:18;20.77;;;14.00;;
13171;SDS011;6651;53.200;10.432;2022-12-10T02:16:58;20.83;;;13.40;;
13171;SDS011;6651;53.200;10.432;2022-12-10T02:21:55;18.92;;;13.23;;
13171;SDS011;6651;53.200;10.432;2022-12-10T02:24:23;20.67;;;13.95;;
13171;SDS011;6651;53.200;10.432;2022-12-10T02:26:58;21.45;;;14.57;;
13171;SDS011;6651;53.200;10.432;2022-12-10T02:29:26;20.55;;;14.75;;
13171;SDS011;6651;53.200;10.432;2022-12-10T02:31:55;20.77;;;13.88;;
13171;SDS011;6651;53.200;10.432;2022-12-10T02:34:22;21.77;;;14.50;;
13171;SDS011;6651;53.200;10.432;2022-12-10T02:36:49;22.50;;;15.32;;
13171;SDS011;6651;53.200;10.432;2022-12-10T02:39:17;22.70;;;15.25;;
13171;SDS011;6651;53.200;10.432;2022-12-10T02:41:46;22.73;;;15.00;;
13171;SDS011;6651;53.200;10.432;2022-12-10T02:44:14;23.33;;;15.45;;
13171;SDS011;6651;53.200;10.432;2022-12-10T02:46:41;24.52;;;15.20;;
13171;SDS011;6651;53.200;10.432;2022-12-10T02:49:08;20.60;;;14.32;;
13171;SDS011;6651;53.200;10.432;2022-12-10T02:51:38;21.33;;;14.50;;
13171;SDS011;6651;53.200;10.432;2022-12-10T02:54:06;22.23;;;14.98;;
13171;SDS011;6651;53.200;10.432;2022-12-10T03:01:45;24.65;;;16.73;;
13171;SDS011;6651;53.200;10.432;2022-12-10T03:04:28;22.92;;;16.52;;
13171;SDS011;6651;53.200;10.432;2022-12-10T03:07:00;24.20;;;16.48;;
13171;SDS011;6651;53.200;10.432;2022-12-10T03:09:33;24.05;;;15.60;;
13171;SDS011;6651;53.200;10.432;2022-12-10T03:12:09;25.17;;;16.20;;
13171;SDS011;6651;53.200;10.432;2022-12-10T03:14:38;23.35;;;15.73;;
13171;SDS011;6651;53.200;10.432;2022-12-10T03:17:04;24.38;;;15.73;;
13171;SDS011;6651;53.200;10.432;2022-12-10T03:19:41;24.25;;;16.10;;
13171;SDS011;6651;53.200;10.432;2022-12-10T03:22:08;24.55;;;16.55;;
13171;SDS011;6651;53.200;10.432;2022-12-10T03:24:35;24.80;;;16.45;;
13171;SDS011;6651;53.200;10.432;2022-12-10T03:27:01;26.38;;;17.23;;
13171;SDS011;6651;53.200;10.432;2022-12-10T03:29:31;23.13;;;15.38;;
13171;SDS011;6651;53.200;10.432;2022-12-10T03:31:59;25.65;;;16.50;;
13171;SDS011;6651;53.200;10.432;2022-12-10T03:34:25;23.27;;;16.02;;
13171;SDS011;6651;53.200;10.432;2022-12-10T03:36:52;23.70;;;16.80;;
13171;SDS011;6651;53.200;10.432;2022-12-10T03:39:18;24.58;;;15.85;;
13171;SDS011;6651;53.200;10.432;2022-12-10T03:41:44;25.33;;;17.13;;
13171;SDS011;6651;53.200;10.432;2022-12-10T03:44:10;24.80;;;16.02;;
13171;SDS011;6651;53.200;10.432;2022-12-10T03:46:37;24.48;;;16.35;;
13171;SDS011;6651;53.200;10.432;2022-12-10T03:49:03;25.70;;;16.83;;
13171;SDS011;6651;53.200;10.432;2022-12-10T03:51:29;25.38;;;16.80;;
13171;SDS011;6651;53.200;10.432;2022-12-10T03:53:55;24.42;;;15.88;;
13171;SDS011;6651;53.200;10.432;2022-12-10T03:56:22;24.23;;;16.90;;
13171;SDS011;6651;53.200;10.432;2022-12-10T03:58:48;25.95;;;16.95;;
13171;SDS011;6651;53.200;10.432;2022-12-10T04:01:14;22.90;;;16.15;;
13171;SDS011;6651;53.200;10.432;2022-12-10T04:03:41;24.05;;;16.15;;
13171;SDS011;6651;53.200;10.432;2022-12-10T04:06:08;24.15;;;15.48;;
13171;SDS011;6651;53.200;10.432;2022-12-10T04:08:35;25.42;;;15.93;;
13171;SDS011;6651;53.200;10.432;2022-12-10T04:11:05;23.90;;;15.43;;
13171;SDS011;6651;53.200;10.432;2022-12-10T04:13:32;23.98;;;15.55;;
13171;SDS011;6651;53.200;10.432;2022-12-10T04:16:16;24.13;;;15.90;;
13171;SDS011;6651;53.200;10.432;2022-12-10T04:18:51;23.13;;;15.55;;
13171;SDS011;6651;53.200;10.432;2022-12-10T04:21:17;22.52;;;15.02;;
13171;SDS011;6651;53.200;10.432;2022-12-10T04:24:02;23.20;;;15.30;;
13171;SDS011;6651;53.200;10.432;2022-12-10T04:26:47;22.20;;;15.13;;
13171;SDS011;6651;53.200;10.432;2022-12-10T04:29:19;21.95;;;14.38;;
13171;SDS011;6651;53.200;10.432;2022-12-10T04:31:45;21.80;;;15.23;;
13171;SDS011;6651;53.200;10.432;2022-12-10T04:34:11;20.65;;;14.15;;
13171;SDS011;6651;53.200;10.432;2022-12-10T04:36:37;21.98;;;14.07;;
13171;SDS011;6651;53.200;10.432;2022-12-10T04:39:03;22.30;;;14.32;;
13171;SDS011;6651;53.200;10.432;2022-12-10T04:41:29;21.92;;;14.88;;
13171;SDS011;6651;53.200;10.432;2022-12-10T04:43:55;21.10;;;14.43;;
13171;SDS011;6651;53.200;10.432;2022-12-10T04:46:21;19.52;;;14.38;;
13171;SDS011;6651;53.200;10.432;2022-12-10T04:48:47;22.00;;;14.85;;
13171;SDS011;6651;53.200;10.432;2022-12-10T04:51:14;21.00;;;14.43;;
13171;SDS011;6651;53.200;10.432;2022-12-10T04:53:39;21.92;;;14.68;;
13171;SDS011;6651;53.200;10.432;2022-12-10T04:56:06;20.23;;;13.93;;
13171;SDS011;6651;53.200;10.432;2022-12-10T04:58:32;22.88;;;15.43;;
13171;SDS011;6651;53.200;10.432;2022-12-10T05:01:05;21.45;;;14.45;;
13171;SDS011;6651;53.200;10.432;2022-12-10T05:03:32;24.35;;;15.57;;
13171;SDS011;6651;53.200;10.432;2022-12-10T05:06:02;21.58;;;14.48;;
13171;SDS011;6651;53.200;10.432;2022-12-10T05:08:28;24.17;;;15.65;;
13171;SDS011;6651;53.200;10.432;2022-12-10T05:10:55;24.95;;;15.38;;
13171;SDS011;6651;53.200;10.432;2022-12-10T05:13:21;23.05;;;14.93;;
13171;SDS011;6651;53.200;10.432;2022-12-10T05:15:47;24.05;;;15.32;;
13171;SDS011;6651;53.200;10.432;2022-12-10T05:18:13;24.40;;;15.10;;
13171;SDS011;6651;53.200;10.432;2022-12-10T05:20:39;26.25;;;15.50;;
13171;SDS011;6651;53.200;10.432;2022-12-10T05:23:05;24.42;;;15.38;;
13171;SDS011;6651;53.200;10.432;2022-12-10T05:25:56;23.73;;;14.70;;
13171;SDS011;6651;53.200;10.432;2022-12-10T05:28:22;23.60;;;15.20;;
13171;SDS011;6651;53.200;10.432;2022-12-10T05:30:48;25.50;;;15.45;;
13171;SDS011;6651;53.200;10.432;2022-12-10T05:33:14;24.70;;;14.57;;
13171;SDS011;6651;53.200;10.432;2022-12-10T05:35:41;26.15;;;16.25;;
13171;SDS011;6651;53.200;10.432;2022-12-10T05:38:07;26.10;;;15.73;;
13171;SDS011;6651;53.200;10.432;2022-12-10T05:40:36;25.17;;;16.02;;
13171;SDS011;6651;53.200;10.432;2022-12-10T05:43:03;23.83;;;15.00;;
13171;SDS011;6651;53.200;10.432;2022-12-10T05:45:31;23.23;;;14.65;;
13171;SDS011;6651;53.200;10.432;2022-12-10T05:47:57;25.45;;;14.93;;
13171;SDS011;6651;53.200;10.432;2022-12-10T05:50:23;24.92;;;14.77;;
13171;SDS011;6651;53.200;10.432;2022-12-10T05:52:50;24.50;;;14.98;;
13171;SDS011;6651;53.200;10.432;2022-12-10T05:55:16;25.15;;;14.63;;
13171;SDS011;6651;53.200;10.432;2022-12-10T05:57:42;26.73;;;15.48;;
13171;SDS011;6651;53.200;10.432;2022-12-10T06:00:08;23.63;;;14.63;;
13171;SDS011;6651;53.200;10.432;2022-12-10T06:02:35;26.80;;;16.48;;
13171;SDS011;6651;53.200;10.432;2022-12-10T06:05:01;23.83;;;15.07;;
13171;SDS011;6651;53.200;10.432;2022-12-10T06:07:27;24.83;;;15.20;;
13171;SDS011;6651;53.200;10.432;2022-12-10T06:09:54;25.38;;;15.32;;
13171;SDS011;6651;53.200;10.432;2022-12-10T06:12:20;23.52;;;15.18;;
13171;SDS011;6651;53.200;10.432;2022-12-10T06:14:47;27.40;;;14.75;;
13171;SDS011;6651;53.200;10.432;2022-12-10T06:17:13;24.13;;;14.65;;
13171;SDS011;6651;53.200;10.432;2022-12-10T06:19:39;24.90;;;14.98;;
13171;SDS011;6651;53.200;10.432;2022-12-10T06:22:05;22.77;;;13.88;;
13171;SDS011;6651;53.200;10.432;2022-12-10T06:24:31;23.55;;;14.45;;
13171;SDS011;6651;53.200;10.432;2022-12-10T06:26:57;22.45;;;14.63;;
13171;SDS011;6651;53.200;10.432;2022-12-10T06:29:23;24.75;;;13.95;;
13171;SDS011;6651;53.200;10.432;2022-12-10T06:31:49;23.10;;;14.15;;
13171;SDS011;6651;53.200;10.432;2022-12-10T06:34:15;25.30;;;14.85;;
13171;SDS011;6651;53.200;10.432;2022-12-10T06:36:41;23.35;;;13.90;;
13171;SDS011;6651;53.200;10.432;2022-12-10T06:39:07;21.40;;;14.60;;
13171;SDS011;6651;53.200;10.432;2022-12-10T06:41:33;23.80;;;14.25;;
13171;SDS011;6651;53.200;10.432;2022-12-10T06:43:59;22.05;;;14.45;;
13171;SDS011;6651;53.200;10.432;2022-12-10T06:46:25;21.80;;;14.02;;
13171;SDS011;6651;53.200;10.432;2022-12-10T06:48:55;20.80;;;13.95;;
13171;SDS011;6651;53.200;10.432;2022-12-10T06:51:21;19.45;;;13.27;;
13171;SDS011;6651;53.200;10.432;2022-12-10T06:53:47;21.48;;;13.40;;
13171;SDS011;6651;53.200;10.432;2022-12-10T06:56:17;21.58;;;14.27;;
13171;SDS011;6651;53.200;10.432;2022-12-10T06:58:44;21.90;;;13.93;;
13171;SDS011;6651;53.200;10.432;2022-12-10T07:03:39;20.48;;;13.45;;
13171;SDS011;6651;53.200;10.432;2022-12-10T07:06:06;22.35;;;14.10;;
13171;SDS011;6651;53.200;10.432;2022-12-10T07:08:32;24.08;;;14.98;;
13171;SDS011;6651;53.200;10.432;2022-12-10T07:10:58;23.05;;;14.75;;
13171;SDS011;6651;53.200;10.432;2022-12-10T07:13:24;22.27;;;14.23;;
13171;SDS011;6651;53.200;10.432;2022-12-10T07:15:50;23.77;;;15.18;;
13171;SDS011;6651;53.200;10.432;2022-12-10T07:18:16;24.00;;;14.18;;
13171;SDS011;6651;53.200;10.432;2022-12-10T07:20:42;23.75;;;15.25;;
13171;SDS011;6651;53.200;10.432;2022-12-10T07:23:08;21.70;;;14.60;;
13171;SDS011;6651;53.200;10.432;2022-12-10T07:25:34;24.08;;;14.88;;
13171;SDS011;6651;53.200;10.432;2022-12-10T07:28:00;21.80;;;14.52;;
13171;SDS011;6651;53.200;10.432;2022-12-10T07:30:26;23.00;;;14.70;;
13171;SDS011;6651;53.200;10.432;2022-12-10T07:32:52;23.25;;;14.95;;
13171;SDS011;6651;53.200;10.432;2022-12-10T07:35:18;23.40;;;14.73;;
13171;SDS011;6651;53.200;10.432;2022-12-10T07:37:44;23.45;;;15.50;;
13171;SDS011;6651;53.200;10.432;2022-12-10T07:40:10;21.70;;;13.82;;
13171;SDS011;6651;53.200;10.432;2022-12-10T07:42:36;21.58;;;14.48;;
13171;SDS011;6651;53.200;10.432;2022-12-10T07:45:02;22.92;;;15.10;;
13171;SDS011;6651;53.200;10.432;2022-12-10T07:47:28;22.45;;;14.63;;
13171;SDS011;6651;53.200;10.432;2022-12-10T07:49:54;22.10;;;14.02;;
13171;SDS011;6651;53.200;10.432;2022-12-10T07:52:20;22.75;;;14.75;;
13171;SDS011;6651;53.200;10.432;2022-12-10T07:54:46;20.98;;;15.15;;
13171;SDS011;6651;53.200;10.432;2022-12-10T07:57:12;20.00;;;13.90;;
13171;SDS011;6651;53.200;10.432;2022-12-10T07:59:40;20.73;;;14.38;;
13171;SDS011;6651;53.200;10.432;2022-12-10T08:02:07;19.90;;;13.98;;
13171;SDS011;6651;53.200;10.432;2022-12-10T08:04:33;20.73;;;14.45;;
13171;SDS011;6651;53.200;10.432;2022-12-10T08:06:59;23.15;;;14.70;;
13171;SDS011;6651;53.200;10.432;2022-12-10T08:09:25;20.52;;;14.70;;
13171;SDS011;6651;53.200;10.432;2022-12-10T08:11:52;21.83;;;14.60;;
13171;SDS011;6651;53.200;10.432;2022-12-10T08:14:18;25.60;;;14.93;;
13171;SDS011;6651;53.200;10.432;2022-12-10T08:16:44;22.17;;;14.52;;
13171;SDS011;6651;53.200;10.432;2022-12-10T08:19:10;21.45;;;15.27;;
13171;SDS011;6651;53.200;10.432;2022-12-10T08:21:36;22.77;;;14.00;;
13171;SDS011;6651;53.200;10.432;2022-12-10T08:24:02;22.13;;;15.30;;
13171;SDS011;6651;53.200;10.432;2022-12-10T08:26:29;21.02;;;14.05;;
13171;SDS011;6651;53.200;10.432;2022-12-10T08:28:56;23.02;;;13.90;;
13171;SDS011;6651;53.200;10.432;2022-12-10T08:31:22;23.50;;;15.18;;
13171;SDS011;6651;53.200;10.432;2022-12-10T08:33:49;23.48;;;15.13;;
13171;SDS011;6651;53.200;10.432;2022-12-10T08:36:16;23.17;;;15.15;;
13171;SDS011;6651;53.200;10.432;2022-12-10T08:38:42;22.40;;;14.68;;
13171;SDS011;6651;53.200;10.432;2022-12-10T08:41:19;21.00;;;14.48;;
13171;SDS011;6651;53.200;10.432;2022-12-10T08:43:46;20.45;;;13.85;;
13171;SDS011;6651;53.200;10.432;2022-12-10T08:46:12;19.85;;;13.75;;
13171;SDS011;6651;53.200;10.432;2022-12-10T08:48:39;21.35;;;13.90;;
13171;SDS011;6651;53.200;10.432;2022-12-10T08:51:05;20.85;;;13.75;;
13171;SDS011;6651;53.200;10.432;2022-12-10T08:53:32;21.13;;;13.98;;
13171;SDS011;6651;53.200;10.432;2022-12-10T08:55:58;19.08;;;14.43;;
13171;SDS011;6651;53.200;10.432;2022-12-10T08:58:24;20.67;;;13.88;;
13171;SDS011;6651;53.200;10.432;2022-12-10T09:00:50;20.30;;;12.88;;
13171;SDS011;6651;53.200;10.432;2022-12-10T09:03:16;18.70;;;13.25;;
13171;SDS011;6651;53.200;10.432;2022-12-10T09:05:42;20.70;;;14.35;;
13171;SDS011;6651;53.200;10.432;2022-12-10T09:08:09;19.67;;;13.60;;
13171;SDS011;6651;53.200;10.432;2022-12-10T09:10:35;20.30;;;14.40;;
13171;SDS011;6651;53.200;10.432;2022-12-10T09:13:02;20.67;;;14.48;;
13171;SDS011;6651;53.200;10.432;2022-12-10T09:15:28;19.45;;;13.70;;
13171;SDS011;6651;53.200;10.432;2022-12-10T09:17:54;18.45;;;13.85;;
13171;SDS011;6651;53.200;10.432;2022-12-10T09:20:20;17.50;;;12.85;;
13171;SDS011;6651;53.200;10.432;2022-12-10T09:22:46;17.88;;;12.15;;
13171;SDS011;6651;53.200;10.432;2022-12-10T09:25:12;19.50;;;13.23;;
13171;SDS011;6651;53.200;10.432;2022-12-10T09:27:40;18.73;;;13.23;;
13171;SDS011;6651;53.200;10.432;2022-12-10T09:30:06;19.02;;;13.27;;
13171;SDS011;6651;53.200;10.432;2022-12-10T09:32:32;17.75;;;12.23;;
13171;SDS011;6651;53.200;10.432;2022-12-10T09:34:58;17.50;;;12.73;;
13171;SDS011;6651;53.200;10.432;2022-12-10T09:37:24;19.92;;;13.27;;
13171;SDS011;6651;53.200;10.432;2022-12-10T09:39:50;18.17;;;11.88;;
13171;SDS011;6651;53.200;10.432;2022-12-10T09:47:15;17.48;;;11.65;;
13171;SDS011;6651;53.200;10.432;2022-12-10T09:49:51;16.38;;;10.93;;
13171;SDS011;6651;53.200;10.432;2022-12-10T09:52:19;16.63;;;11.55;;
13171;SDS011;6651;53.200;10.432;2022-12-10T09:57:38;17.20;;;12.25;;
13171;SDS011;6651;53.200;10.432;2022-12-10T10:02:37;15.18;;;11.35;;
13171;SDS011;6651;53.200;10.432;2022-12-10T10:07:41;13.85;;;9.98;;
13171;SDS011;6651;53.200;10.432;2022-12-10T10:10:28;15.02;;;10.38;;
13171;SDS011;6651;53.200;10.432;2022-12-10T10:12:57;14.85;;;10.65;;
13171;SDS011;6651;53.200;10.432;2022-12-10T10:15:26;15.10;;;10.45;;
13171;SDS011;6651;53.200;10.432;2022-12-10T10:17:53;15.70;;;11.18;;
13171;SDS011;6651;53.200;10.432;2022-12-10T10:20:21;15.32;;;11.05;;
13171;SDS011;6651;53.200;10.432;2022-12-10T10:22:47;14.77;;;10.63;;
13171;SDS011;6651;53.200;10.432;2022-12-10T10:25:14;14.00;;;10.07;;
13171;SDS011;6651;53.200;10.432;2022-12-10T10:27:41;12.38;;;8.90;;
13171;SDS011;6651;53.200;10.432;2022-12-10T10:30:12;13.98;;;9.80;;
13171;SDS011;6651;53.200;10.432;2022-12-10T10:35:07;14.05;;;10.23;;
13171;SDS011;6651;53.200;10.432;2022-12-10T10:37:46;13.10;;;9.20;;
13171;SDS011;6651;53.200;10.432;2022-12-10T10:40:27;13.70;;;9.70;;
13171;SDS011;6651;53.200;10.432;2022-12-10T10:42:54;13.85;;;9.48;;
13171;SDS011;6651;53.200;10.432;2022-12-10T10:45:31;12.73;;;9.52;;
13171;SDS011;6651;53.200;10.432;2022-12-10T10:50:30;14.05;;;9.45;;
13171;SDS011;6651;53.200;10.432;2022-12-10T10:52:56;12.73;;;9.15;;
13171;SDS011;6651;53.200;10.432;2022-12-10T10:55:32;13.07;;;9.68;;
13171;SDS011;6651;53.200;10.432;2022-12-10T10:58:00;14.15;;;9.82;;
13171;SDS011;6651;53.200;10.432;2022-12-10T11:00:26;15.52;;;10.82;;
13171;SDS011;6651;53.200;10.432;2022-12-10T11:02:52;15.25;;;10.82;;
13171;SDS011;6651;53.200;10.432;2022-12-10T11:05:23;15.02;;;11.23;;
13171;SDS011;6651;53.200;10.432;2022-12-10T11:08:03;13.95;;;10.38;;
13171;SDS011;6651;53.200;10.432;2022-12-10T11:10:30;13.43;;;10.48;;
13171;SDS011;6651;53.200;10.432;2022-12-10T11:17:49;15.50;;;11.35;;
13171;SDS011;6651;53.200;10.432;2022-12-10T11:20:17;14.95;;;10.75;;
13171;SDS011;6651;53.200;10.432;2022-12-10T11:22:57;16.13;;;11.27;;
13171;SDS011;6651;53.200;10.432;2022-12-10T11:25:28;15.88;;;11.38;;
13171;SDS011;6651;53.200;10.432;2022-12-10T11:30:26;16.95;;;11.55;;
13171;SDS011;6651;53.200;10.432;2022-12-10T11:40:36;14.30;;;10.55;;
13171;SDS011;6651;53.200;10.432;2022-12-10T11:45:44;15.38;;;10.63;;
13171;SDS011;6651;53.200;10.432;2022-12-10T11:50:47;14.43;;;10.23;;
13171;SDS011;6651;53.200;10.432;2022-12-10T11:58:40;16.95;;;11.98;;
13171;SDS011;6651;53.200;10.432;2022-12-10T12:14:31;14.70;;;10.57;;
13171;SDS011;6651;53.200;10.432;2022-12-10T12:17:03;15.98;;;11.27;;
13171;SDS011;6651;53.200;10.432;2022-12-10T12:19:34;14.48;;;10.32;;
13171;SDS011;6651;53.200;10.432;2022-12-10T12:22:03;12.75;;;9.85;;
13171;SDS011;6651;53.200;10.432;2022-12-10T12:24:37;13.43;;;9.88;;
13171;SDS011;6651;53.200;10.432;2022-12-10T12:27:13;13.82;;;10.15;;
13171;SDS011;6651;53.200;10.432;2022-12-10T12:30:04;13.40;;;9.65;;
13171;SDS011;6651;53.200;10.432;2022-12-10T12:35:10;13.85;;;10.35;;
13171;SDS011;6651;53.200;10.432;2022-12-10T12:37:42;11.90;;;9.15;;
13171;SDS011;6651;53.200;10.432;2022-12-10T12:40:15;12.70;;;9.75;;
13171;SDS011;6651;53.200;10.432;2022-12-10T12:42:47;12.82;;;9.20;;
13171;SDS011;6651;53.200;10.432;2022-12-10T12:45:20;13.13;;;9.38;;
13171;SDS011;6651;53.200;10.432;2022-12-10T12:51:16;15.35;;;10.65;;
13171;SDS011;6651;53.200;10.432;2022-12-10T12:53:21;14.88;;;10.23;;
13171;SDS011;6651;53.200;10.432;2022-12-10T13:01:06;12.52;;;9.27;;
13171;SDS011;6651;53.200;10.432;2022-12-10T13:06:12;14.43;;;10.23;;
13171;SDS011;6651;53.200;10.432;2022-12-10T13:08:43;13.00;;;9.48;;
13171;SDS011;6651;53.200;10.432;2022-12-10T13:13:39;12.63;;;9.35;;
13171;SDS011;6651;53.200;10.432;2022-12-10T13:18:53;12.95;;;9.48;;
13171;SDS011;6651;53.200;10.432;2022-12-10T13:21:36;13.70;;;9.77;;
13171;SDS011;6651;53.200;10.432;2022-12-10T13:24:41;12.85;;;9.43;;
13171;SDS011;6651;53.200;10.432;2022-12-10T13:27:18;13.55;;;9.65;;
13171;SDS011;6651;53.200;10.432;2022-12-10T13:29:55;14.50;;;10.02;;
13171;SDS011;6651;53.200;10.432;2022-12-10T13:32:23;13.80;;;10.43;;
13171;SDS011;6651;53.200;10.432;2022-12-10T13:42:35;14.57;;;9.98;;
13171;SDS011;6651;53.200;10.432;2022-12-10T13:47:47;13.00;;;9.95;;
13171;SDS011;6651;53.200;10.432;2022-12-10T13:50:18;13.70;;;10.13;;
13171;SDS011;6651;53.200;10.432;2022-12-10T13:55:39;14.70;;;10.65;;
13171;SDS011;6651;53.200;10.432;2022-12-10T14:08:17;14.38;;;10.20;;
13171;SDS011;6651;53.200;10.432;2022-12-10T14:10:44;12.40;;;9.23;;
13171;SDS011;6651;53.200;10.432;2022-12-10T14:13:11;13.02;;;10.20;;
13171;SDS011;6651;53.200;10.432;2022-12-10T14:15:38;14.75;;;10.43;;
13171;SDS011;6651;53.200;10.432;2022-12-10T14:18:09;12.82;;;9.68;;
13171;SDS011;6651;53.200;10.432;2022-12-10T14:20:37;12.90;;;9.48;;
13171;SDS011;6651;53.200;10.432;2022-12-10T14:23:05;12.95;;;9.32;;
13171;SDS011;6651;53.200;10.432;2022-12-10T14:26:18;13.60;;;10.10;;
13171;SDS011;6651;53.200;10.432;2022-12-10T14:28:46;12.65;;;9.70;;
13171;SDS011;6651;53.200;10.432;2022-12-10T14:31:14;13.23;;;9.48;;
13171;SDS011;6651;53.200;10.432;2022-12-10T14:33:43;12.45;;;9.30;;
13171;SDS011;6651;53.200;10.432;2022-12-10T14:36:14;13.77;;;9.18;;
13171;SDS011;6651;53.200;10.432;2022-12-10T14:38:41;12.38;;;8.88;;
13171;SDS011;6651;53.200;10.432;2022-12-10T14:41:07;12.63;;;9.25;;
13171;SDS011;6651;53.200;10.432;2022-12-10T14:43:37;12.98;;;9.68;;
13171;SDS011;6651;53.200;10.432;2022-12-10T14:46:04;13.15;;;10.02;;
13171;SDS011;6651;53.200;10.432;2022-12-10T14:48:30;13.98;;;10.52;;
13171;SDS011;6651;53.200;10.432;2022-12-10T14:51:02;14.30;;;9.82;;
13171;SDS011;6651;53.200;10.432;2022-12-10T14:53:29;14.93;;;11.10;;
13171;SDS011;6651;53.200;10.432;2022-12-10T14:55:56;15.00;;;10.45;;
13171;SDS011;6651;53.200;10.432;2022-12-10T14:58:34;13.25;;;9.65;;
13171;SDS011;6651;53.200;10.432;2022-12-10T15:01:01;14.40;;;10.45;;
13171;SDS011;6651;53.200;10.432;2022-12-10T15:03:28;14.10;;;10.25;;
13171;SDS011;6651;53.200;10.432;2022-12-10T15:05:56;13.20;;;9.77;;
13171;SDS011;6651;53.200;10.432;2022-12-10T15:08:22;13.00;;;9.65;;
13171;SDS011;6651;53.200;10.432;2022-12-10T15:10:54;12.73;;;9.18;;
13171;SDS011;6651;53.200;10.432;2022-12-10T15:13:26;16.65;;;13.00;;
13171;SDS011;6651;53.200;10.432;2022-12-10T15:15:53;16.35;;;13.02;;
13171;SDS011;6651;53.200;10.432;2022-12-10T15:21:20;13.88;;;10.23;;
13171;SDS011;6651;53.200;10.432;2022-12-10T15:23:47;12.55;;;9.20;;
13171;SDS011;6651;53.200;10.432;2022-12-10T15:26:23;12.35;;;9.48;;
13171;SDS011;6651;53.200;10.432;2022-12-10T15:28:50;13.65;;;10.65;;
13171;SDS011;6651;53.200;10.432;2022-12-10T15:33:58;16.60;;;12.77;;
13171;SDS011;6651;53.200;10.432;2022-12-10T15:44:06;12.77;;;9.43;;
13171;SDS011;6651;53.200;10.432;2022-12-10T15:46:48;12.20;;;8.90;;
13171;SDS011;6651;53.200;10.432;2022-12-10T15:49:15;13.13;;;9.13;;
13171;SDS011;6651;53.200;10.432;2022-12-10T15:51:42;12.30;;;9.30;;
13171;SDS011;6651;53.200;10.432;2022-12-10T15:54:28;11.90;;;9.20;;
13171;SDS011;6651;53.200;10.432;2022-12-10T15:56:57;11.52;;;8.43;;
13171;SDS011;6651;53.200;10.432;2022-12-10T15:59:23;11.55;;;8.52;;
13171;SDS011;6651;53.200;10.432;2022-12-10T16:01:49;12.25;;;10.60;;
13171;SDS011;6651;53.200;10.432;2022-12-10T16:04:15;12.10;;;9.57;;
13171;SDS011;6651;53.200;10.432;2022-12-10T16:06:41;11.45;;;8.43;;
13171;SDS011;6651;53.200;10.432;2022-12-10T16:09:10;12.65;;;9.27;;
13171;SDS011;6651;53.200;10.432;2022-12-10T16:11:36;12.63;;;9.60;;
13171;SDS011;6651;53.200;10.432;2022-12-10T16:14:02;11.82;;;9.02;;
13171;SDS011;6651;53.200;10.432;2022-12-10T16:16:29;13.27;;;9.50;;
13171;SDS011;6651;53.200;10.432;2022-12-10T16:18:55;11.48;;;9.20;;
13171;SDS011;6651;53.200;10.432;2022-12-10T16:21:21;12.98;;;9.32;;
13171;SDS011;6651;53.200;10.432;2022-12-10T16:23:47;13.23;;;10.27;;
13171;SDS011;6651;53.200;10.432;2022-12-10T16:26:17;13.85;;;11.00;;
13171;SDS011;6651;53.200;10.432;2022-12-10T16:28:44;13.43;;;11.07;;
13171;SDS011;6651;53.200;10.432;2022-12-10T16:31:11;13.40;;;10.57;;
13171;SDS011;6651;53.200;10.432;2022-12-10T16:33:38;13.82;;;10.38;;
13171;SDS011;6651;53.200;10.432;2022-12-10T16:36:04;14.55;;;10.52;;
13171;SDS011;6651;53.200;10.432;2022-12-10T16:38:30;13.45;;;10.15;;
13171;SDS011;6651;53.200;10.432;2022-12-10T16:40:56;14.02;;;10.20;;
13171;SDS011;6651;53.200;10.432;2022-12-10T16:43:23;12.55;;;9.60;;
13171;SDS011;6651;53.200;10.432;2022-12-10T16:45:53;12.30;;;9.57;;
13171;SDS011;6651;53.200;10.432;2022-12-10T16:48:19;13.20;;;10.20;;